DLH7YF EDDM-EPWA
Flight info
| Callsign | DLH7YF |
|---|---|
| Flight time | 1h 21m |
| Altitude | 35000 |
| Route | BIBAG3S BIBAG Y133 BEPAS DCT LEGAZ DCT LAGAR DCT OKENO DCT GOGUS DCT AGAVA |
| Aircraft | A319/M-SDE3FGHIRWY/LB1 |
Departure
| Time | 2026-05-04 08:47 |
|---|---|
| Airport | Munich Airport (EDDM) |
Arrival
| Time | 2026-05-04 10:08 |
|---|---|
| Airport | Warsaw Chopin Airport (EPWA) |
| Time | Latitude | Longitude | Altitude | Speed | Heading |
|---|---|---|---|---|---|
| 2026-05-04 08:25 | 48.35576 | 11.79738 | 1464 ft | 0 kts | 84° |
| 2026-05-04 08:37 | 48.35575 | 11.79735 | 1465 ft | 1 kts | 84° |
| 2026-05-04 08:38 | 48.35574 | 11.79713 | 1465 ft | 2 kts | 83° |
| 2026-05-04 08:38 | 48.35572 | 11.79691 | 1465 ft | 2 kts | 84° |
| 2026-05-04 08:38 | 48.35570 | 11.79668 | 1465 ft | 2 kts | 84° |
| 2026-05-04 08:40 | 48.35606 | 11.79563 | 1467 ft | 0 kts | 174° |
| 2026-05-04 08:42 | 48.35604 | 11.79563 | 1466 ft | 0 kts | 174° |
| 2026-05-04 08:42 | 48.35585 | 11.79566 | 1466 ft | 5 kts | 174° |
| 2026-05-04 08:42 | 48.35529 | 11.79575 | 1466 ft | 10 kts | 173° |
| 2026-05-04 08:43 | 48.35436 | 11.79591 | 1466 ft | 16 kts | 174° |
| 2026-05-04 08:43 | 48.35311 | 11.79613 | 1465 ft | 20 kts | 174° |
| 2026-05-04 08:43 | 48.35168 | 11.79637 | 1465 ft | 20 kts | 174° |
| 2026-05-04 08:43 | 48.35030 | 11.79662 | 1467 ft | 19 kts | 173° |
| 2026-05-04 08:44 | 48.34922 | 11.79681 | 1468 ft | 11 kts | 174° |
| 2026-05-04 08:44 | 48.34861 | 11.79691 | 1468 ft | 0 kts | 173° |
| 2026-05-04 08:46 | 48.34684 | 11.80249 | 1468 ft | 17 kts | 173° |
| 2026-05-04 08:46 | 48.34560 | 11.80269 | 1468 ft | 18 kts | 174° |
| 2026-05-04 08:46 | 48.34463 | 11.80210 | 1468 ft | 17 kts | 258° |
| 2026-05-04 08:46 | 48.34436 | 11.79886 | 1471 ft | 62 kts | 263° |
| 2026-05-04 08:47 | 48.34359 | 11.78876 | 1478 ft | 129 kts | 264° |
| 2026-05-04 08:47 | 48.34241 | 11.77309 | 1672 ft | 164 kts | 264° |
| 2026-05-04 08:47 | 48.34100 | 11.75610 | 2279 ft | 167 kts | 264° |
| 2026-05-04 08:47 | 48.33971 | 11.73873 | 2935 ft | 171 kts | 265° |
| 2026-05-04 08:48 | 48.33713 | 11.72096 | 3380 ft | 185 kts | 240° |
| 2026-05-04 08:48 | 48.32715 | 11.70849 | 3831 ft | 197 kts | 195° |
| 2026-05-04 08:48 | 48.31311 | 11.70683 | 4327 ft | 209 kts | 178° |
| 2026-05-04 08:48 | 48.29807 | 11.70718 | 4814 ft | 226 kts | 175° |
| 2026-05-04 08:49 | 48.28259 | 11.71273 | 5338 ft | 240 kts | 153° |
| 2026-05-04 08:50 | 48.21965 | 11.83326 | 9937 ft | 284 kts | 88° |
| 2026-05-04 08:50 | 48.22100 | 11.86289 | 10684 ft | 291 kts | 89° |
| 2026-05-04 08:51 | 48.22207 | 11.89346 | 11466 ft | 295 kts | 89° |
| 2026-05-04 08:51 | 48.22289 | 11.92413 | 12235 ft | 300 kts | 90° |
| 2026-05-04 08:51 | 48.22367 | 11.95534 | 12974 ft | 305 kts | 88° |
| 2026-05-04 08:51 | 48.22796 | 11.98716 | 13449 ft | 322 kts | 74° |
| 2026-05-04 08:52 | 48.23554 | 12.01944 | 13802 ft | 340 kts | 71° |
| 2026-05-04 08:52 | 48.24398 | 12.05344 | 14200 ft | 355 kts | 71° |
| 2026-05-04 08:52 | 48.25251 | 12.08890 | 14695 ft | 365 kts | 71° |
| 2026-05-04 08:52 | 48.26087 | 12.12481 | 15355 ft | 370 kts | 72° |
| 2026-05-04 08:53 | 48.26918 | 12.16141 | 15999 ft | 375 kts | 72° |
| 2026-05-04 08:54 | 48.32815 | 12.42975 | 20205 ft | 402 kts | 72° |
| 2026-05-04 08:55 | 48.33680 | 12.46959 | 20758 ft | 406 kts | 72° |
| 2026-05-04 08:55 | 48.34560 | 12.51024 | 21320 ft | 409 kts | 72° |
| 2026-05-04 08:55 | 48.35441 | 12.55097 | 21875 ft | 412 kts | 72° |
| 2026-05-04 08:55 | 48.36324 | 12.59188 | 22398 ft | 415 kts | 72° |
| 2026-05-04 08:57 | 48.42856 | 12.88575 | 25706 ft | 436 kts | 71° |
| 2026-05-04 09:01 | 48.71227 | 13.34208 | 31383 ft | 455 kts | 28° |
| 2026-05-04 09:01 | 48.73937 | 13.36634 | 31869 ft | 453 kts | 28° |
| 2026-05-04 09:01 | 48.76646 | 13.39063 | 32329 ft | 451 kts | 28° |
| 2026-05-04 09:01 | 48.79326 | 13.41468 | 32753 ft | 451 kts | 27° |
| 2026-05-04 09:02 | 48.82041 | 13.43909 | 33170 ft | 450 kts | 27° |
| 2026-05-04 09:02 | 48.84707 | 13.46306 | 33518 ft | 450 kts | 27° |
| 2026-05-04 09:02 | 48.87386 | 13.48718 | 33816 ft | 451 kts | 27° |
| 2026-05-04 09:02 | 48.90143 | 13.51056 | 34092 ft | 452 kts | 24° |
| 2026-05-04 09:03 | 48.92934 | 13.53149 | 34355 ft | 452 kts | 21° |
| 2026-05-04 09:03 | 48.95761 | 13.55157 | 34618 ft | 453 kts | 21° |
| 2026-05-04 09:03 | 48.98616 | 13.57163 | 34863 ft | 454 kts | 21° |
| 2026-05-04 09:03 | 49.01485 | 13.59177 | 35005 ft | 455 kts | 21° |
| 2026-05-04 09:04 | 49.04349 | 13.61195 | 35014 ft | 456 kts | 21° |
| 2026-05-04 09:04 | 49.10119 | 13.65278 | 35013 ft | 456 kts | 22° |
| 2026-05-04 09:05 | 49.15857 | 13.69369 | 35019 ft | 456 kts | 22° |
| 2026-05-04 09:05 | 49.21563 | 13.73446 | 35011 ft | 457 kts | 22° |
| 2026-05-04 09:06 | 49.27320 | 13.77567 | 35009 ft | 457 kts | 22° |
| 2026-05-04 09:08 | 49.50283 | 13.94094 | 34984 ft | 457 kts | 22° |
| 2026-05-04 09:08 | 49.56059 | 13.98278 | 34978 ft | 458 kts | 22° |
| 2026-05-04 09:09 | 49.61800 | 14.02451 | 34978 ft | 459 kts | 22° |
| 2026-05-04 09:09 | 49.67532 | 14.06627 | 34979 ft | 459 kts | 22° |
| 2026-05-04 09:10 | 49.73272 | 14.10818 | 34975 ft | 459 kts | 22° |
| 2026-05-04 09:10 | 49.79053 | 14.15048 | 34985 ft | 459 kts | 22° |
| 2026-05-04 09:11 | 49.84784 | 14.19253 | 34978 ft | 459 kts | 22° |
| 2026-05-04 09:11 | 49.90575 | 14.23514 | 34977 ft | 460 kts | 22° |
| 2026-05-04 09:12 | 49.96319 | 14.27752 | 34978 ft | 460 kts | 22° |
| 2026-05-04 09:14 | 50.19402 | 14.44871 | 34969 ft | 462 kts | 22° |
| 2026-05-04 09:14 | 50.25191 | 14.49194 | 34968 ft | 462 kts | 22° |
| 2026-05-04 09:15 | 50.30990 | 14.53542 | 34970 ft | 463 kts | 22° |
| 2026-05-04 09:15 | 50.36779 | 14.57897 | 34966 ft | 463 kts | 22° |
| 2026-05-04 09:17 | 50.62434 | 14.78794 | 34967 ft | 468 kts | 39° |
| 2026-05-04 09:18 | 50.66773 | 14.86327 | 34966 ft | 471 kts | 54° |
| 2026-05-04 09:18 | 50.69788 | 14.95459 | 34969 ft | 473 kts | 68° |
| 2026-05-04 09:19 | 50.72076 | 15.05158 | 34973 ft | 473 kts | 70° |
| 2026-05-04 09:19 | 50.74350 | 15.14891 | 34972 ft | 473 kts | 69° |
| 2026-05-04 09:20 | 50.76636 | 15.24534 | 34978 ft | 473 kts | 69° |
| 2026-05-04 09:20 | 50.78936 | 15.34237 | 34980 ft | 472 kts | 69° |
| 2026-05-04 09:21 | 50.81318 | 15.43879 | 34987 ft | 472 kts | 67° |
| 2026-05-04 09:21 | 50.83795 | 15.53453 | 34989 ft | 472 kts | 67° |
| 2026-05-04 09:22 | 50.86249 | 15.63003 | 34985 ft | 471 kts | 67° |
| 2026-05-04 09:22 | 50.88695 | 15.72613 | 34975 ft | 471 kts | 68° |
| 2026-05-04 09:23 | 50.91119 | 15.82198 | 34968 ft | 471 kts | 68° |
| 2026-05-04 09:23 | 50.93540 | 15.91807 | 34961 ft | 471 kts | 68° |
| 2026-05-04 09:25 | 51.03160 | 16.30362 | 34946 ft | 471 kts | 68° |
| 2026-05-04 09:26 | 51.05537 | 16.39986 | 34949 ft | 471 kts | 68° |
| 2026-05-04 09:26 | 51.07917 | 16.49670 | 34950 ft | 470 kts | 68° |
| 2026-05-04 09:27 | 51.10275 | 16.59303 | 34947 ft | 470 kts | 68° |
| 2026-05-04 09:27 | 51.12652 | 16.68945 | 34952 ft | 470 kts | 69° |
| 2026-05-04 09:28 | 51.15002 | 16.78591 | 34952 ft | 470 kts | 69° |
| 2026-05-04 09:28 | 51.17344 | 16.88284 | 34954 ft | 469 kts | 69° |
| 2026-05-04 09:29 | 51.19664 | 16.97923 | 34956 ft | 469 kts | 69° |
| 2026-05-04 09:29 | 51.21988 | 17.07628 | 34947 ft | 469 kts | 69° |
| 2026-05-04 09:30 | 51.24288 | 17.17285 | 34943 ft | 469 kts | 69° |
| 2026-05-04 09:30 | 51.26592 | 17.27002 | 34937 ft | 469 kts | 69° |
| 2026-05-04 09:31 | 51.28887 | 17.36710 | 34944 ft | 469 kts | 69° |
| 2026-05-04 09:31 | 51.31158 | 17.46377 | 34719 ft | 462 kts | 69° |
| 2026-05-04 09:32 | 51.32274 | 17.51143 | 34095 ft | 461 kts | 69° |
| 2026-05-04 09:32 | 51.33389 | 17.55908 | 33455 ft | 460 kts | 69° |
| 2026-05-04 09:34 | 51.41144 | 17.89425 | 28420 ft | 457 kts | 69° |
| 2026-05-04 09:34 | 51.42226 | 17.94138 | 27851 ft | 452 kts | 69° |
| 2026-05-04 09:34 | 51.43306 | 17.98852 | 27242 ft | 447 kts | 69° |
| 2026-05-04 09:34 | 51.44364 | 18.03481 | 26654 ft | 443 kts | 69° |
| 2026-05-04 09:35 | 51.45407 | 18.08047 | 26038 ft | 439 kts | 69° |
| 2026-05-04 09:35 | 51.46452 | 18.12638 | 25455 ft | 435 kts | 69° |
| 2026-05-04 09:35 | 51.47467 | 18.17101 | 24872 ft | 431 kts | 69° |
| 2026-05-04 09:35 | 51.48487 | 18.21600 | 24265 ft | 426 kts | 69° |
| 2026-05-04 09:37 | 51.55206 | 18.52043 | 20298 ft | 406 kts | 73° |
| 2026-05-04 09:37 | 51.55896 | 18.56396 | 19775 ft | 403 kts | 77° |
| 2026-05-04 09:38 | 51.56435 | 18.60788 | 19257 ft | 400 kts | 80° |
| 2026-05-04 09:38 | 51.56816 | 18.65124 | 18747 ft | 397 kts | 84° |
| 2026-05-04 09:38 | 51.57053 | 18.69517 | 18228 ft | 394 kts | 88° |
| 2026-05-04 09:38 | 51.57149 | 18.73912 | 17717 ft | 391 kts | 90° |
| 2026-05-04 09:39 | 51.57201 | 18.78237 | 17232 ft | 388 kts | 90° |
| 2026-05-04 09:39 | 51.57247 | 18.82560 | 16990 ft | 386 kts | 90° |
| 2026-05-04 09:39 | 51.57294 | 18.86857 | 16974 ft | 387 kts | 90° |
| 2026-05-04 09:39 | 51.57342 | 18.91188 | 16970 ft | 388 kts | 90° |
| 2026-05-04 09:40 | 51.57389 | 18.95454 | 16973 ft | 388 kts | 90° |
| 2026-05-04 09:40 | 51.57437 | 18.99831 | 16975 ft | 388 kts | 90° |
| 2026-05-04 09:40 | 51.57484 | 19.04126 | 16968 ft | 388 kts | 90° |
| 2026-05-04 09:40 | 51.57530 | 19.08455 | 16973 ft | 388 kts | 90° |
| 2026-05-04 09:41 | 51.57574 | 19.12771 | 16969 ft | 388 kts | 90° |
| 2026-05-04 09:42 | 51.57843 | 19.42988 | 16984 ft | 387 kts | 90° |
| 2026-05-04 09:43 | 51.57876 | 19.47351 | 16990 ft | 388 kts | 90° |
| 2026-05-04 09:43 | 51.57906 | 19.51650 | 16988 ft | 387 kts | 90° |
| 2026-05-04 09:43 | 51.57935 | 19.55976 | 16989 ft | 387 kts | 90° |
| 2026-05-04 09:43 | 51.57961 | 19.60301 | 16994 ft | 388 kts | 90° |
| 2026-05-04 09:44 | 51.57986 | 19.64582 | 16984 ft | 388 kts | 90° |
| 2026-05-04 09:44 | 51.58010 | 19.68909 | 16988 ft | 387 kts | 91° |
| 2026-05-04 09:44 | 51.58031 | 19.73229 | 16998 ft | 387 kts | 91° |
| 2026-05-04 09:46 | 51.57897 | 20.03502 | 16978 ft | 387 kts | 94° |
| 2026-05-04 09:46 | 51.57758 | 20.07801 | 16975 ft | 387 kts | 94° |
| 2026-05-04 09:46 | 51.57618 | 20.12120 | 16984 ft | 387 kts | 94° |
| 2026-05-04 09:47 | 51.57479 | 20.16423 | 16989 ft | 387 kts | 94° |
| 2026-05-04 09:47 | 51.57339 | 20.20695 | 16989 ft | 387 kts | 94° |
| 2026-05-04 09:49 | 51.58038 | 20.50617 | 16997 ft | 388 kts | 67° |
| 2026-05-04 09:49 | 51.59081 | 20.54588 | 16987 ft | 389 kts | 66° |
| 2026-05-04 09:49 | 51.60146 | 20.58557 | 16940 ft | 385 kts | 66° |
| 2026-05-04 09:51 | 51.66244 | 20.82003 | 14034 ft | 373 kts | 67° |
| 2026-05-04 09:51 | 51.67227 | 20.85831 | 13560 ft | 371 kts | 67° |
| 2026-05-04 09:51 | 51.68407 | 20.89457 | 13047 ft | 367 kts | 50° |
| 2026-05-04 09:51 | 51.70329 | 20.91983 | 12743 ft | 353 kts | 24° |
| 2026-05-04 09:52 | 51.72587 | 20.93317 | 12570 ft | 338 kts | 14° |
| 2026-05-04 09:52 | 51.74799 | 20.94382 | 12375 ft | 328 kts | 13° |
| 2026-05-04 09:52 | 51.76948 | 20.95334 | 12199 ft | 317 kts | 9° |
| 2026-05-04 09:52 | 51.79099 | 20.95889 | 11989 ft | 306 kts | 1° |
| 2026-05-04 09:53 | 51.81198 | 20.96091 | 11644 ft | 302 kts | 359° |
| 2026-05-04 09:53 | 51.83282 | 20.96210 | 11253 ft | 300 kts | 358° |
| 2026-05-04 09:53 | 51.85344 | 20.96324 | 10878 ft | 299 kts | 358° |
| 2026-05-04 09:53 | 51.87423 | 20.96452 | 10500 ft | 297 kts | 359° |
| 2026-05-04 09:54 | 51.89457 | 20.96587 | 10129 ft | 295 kts | 359° |
| 2026-05-04 09:54 | 51.91510 | 20.96730 | 9976 ft | 293 kts | 359° |
| 2026-05-04 09:54 | 51.93542 | 20.96872 | 9975 ft | 295 kts | 359° |
| 2026-05-04 09:54 | 51.95578 | 20.97018 | 9971 ft | 295 kts | 359° |
| 2026-05-04 09:55 | 51.97637 | 20.97268 | 9957 ft | 297 kts | 6° |
| 2026-05-04 09:55 | 51.99636 | 20.98116 | 9962 ft | 300 kts | 18° |
| 2026-05-04 09:55 | 52.01561 | 20.99437 | 9964 ft | 301 kts | 21° |
| 2026-05-04 09:55 | 52.03469 | 21.00866 | 9954 ft | 301 kts | 22° |
| 2026-05-04 09:56 | 52.05373 | 21.02304 | 9960 ft | 301 kts | 22° |
| 2026-05-04 09:56 | 52.07258 | 21.03713 | 9965 ft | 300 kts | 21° |
| 2026-05-04 09:56 | 52.09146 | 21.05112 | 9969 ft | 300 kts | 21° |
| 2026-05-04 09:56 | 52.11053 | 21.06516 | 9968 ft | 300 kts | 21° |
| 2026-05-04 09:57 | 52.12949 | 21.07906 | 9961 ft | 292 kts | 21° |
| 2026-05-04 09:57 | 52.14753 | 21.09232 | 9960 ft | 276 kts | 21° |
| 2026-05-04 09:57 | 52.16451 | 21.10446 | 9960 ft | 265 kts | 15° |
| 2026-05-04 09:57 | 52.18227 | 21.10688 | 9913 ft | 250 kts | 340° |
| 2026-05-04 09:58 | 52.19762 | 21.09543 | 9650 ft | 242 kts | 326° |
| 2026-05-04 09:58 | 52.21217 | 21.08174 | 9246 ft | 245 kts | 326° |
| 2026-05-04 09:58 | 52.22700 | 21.06804 | 8917 ft | 246 kts | 327° |
| 2026-05-04 10:00 | 52.33099 | 20.97634 | 6811 ft | 240 kts | 328° |
| 2026-05-04 10:00 | 52.34560 | 20.96351 | 6523 ft | 239 kts | 328° |
| 2026-05-04 10:02 | 52.42968 | 20.85530 | 4512 ft | 217 kts | 258° |
| 2026-05-04 10:04 | 52.35221 | 20.80224 | 3765 ft | 218 kts | 155° |
| 2026-05-04 10:04 | 52.33921 | 20.81399 | 3763 ft | 213 kts | 156° |
| 2026-05-04 10:04 | 52.32618 | 20.82562 | 3765 ft | 213 kts | 156° |
| 2026-05-04 10:04 | 52.31322 | 20.83728 | 3544 ft | 215 kts | 155° |
| 2026-05-04 10:05 | 52.30040 | 20.84936 | 3400 ft | 208 kts | 155° |
| 2026-05-04 10:05 | 52.28799 | 20.86107 | 3210 ft | 203 kts | 156° |
| 2026-05-04 10:05 | 52.27565 | 20.87184 | 2964 ft | 201 kts | 158° |
| 2026-05-04 10:05 | 52.26337 | 20.88230 | 2686 ft | 203 kts | 157° |
| 2026-05-04 10:06 | 52.25104 | 20.89303 | 2346 ft | 196 kts | 157° |
| 2026-05-04 10:06 | 52.23970 | 20.90327 | 2190 ft | 176 kts | 157° |
| 2026-05-04 10:06 | 52.22916 | 20.91222 | 1846 ft | 172 kts | 158° |
| 2026-05-04 10:08 | 52.17219 | 20.96149 | 341 ft | 122 kts | 154° |
| 2026-05-04 10:08 | 52.16610 | 20.96677 | 332 ft | 75 kts | 151° |
| 2026-05-04 10:08 | 52.16361 | 20.96947 | 337 ft | 26 kts | 94° |
| 2026-05-04 10:08 | 52.16433 | 20.97166 | 337 ft | 16 kts | 24° |
| 2026-05-04 10:09 | 52.16524 | 20.97154 | 337 ft | 12 kts | 333° |
| 2026-05-04 10:09 | 52.16581 | 20.97106 | 336 ft | 7 kts | 331° |
| 2026-05-04 10:09 | 52.16633 | 20.97058 | 335 ft | 9 kts | 330° |
| 2026-05-04 10:09 | 52.16694 | 20.97084 | 336 ft | 10 kts | 58° |
| 2026-05-04 10:10 | 52.16729 | 20.97183 | 337 ft | 9 kts | 47° |
| 2026-05-04 10:10 | 52.16795 | 20.97165 | 337 ft | 11 kts | 330° |
| 2026-05-04 10:10 | 52.16871 | 20.97096 | 336 ft | 12 kts | 333° |
| 2026-05-04 10:10 | 52.16925 | 20.97056 | 335 ft | 6 kts | 2° |
| 2026-05-04 10:11 | 52.16946 | 20.97105 | 337 ft | 4 kts | 74° |
| 2026-05-04 10:11 | 52.16950 | 20.97137 | 338 ft | 2 kts | 77° |
| 2026-05-04 10:11 | 52.16954 | 20.97160 | 339 ft | 2 kts | 77° |
| 2026-05-04 10:11 | 52.16958 | 20.97188 | 340 ft | 2 kts | 76° |
| 2026-05-04 10:12 | 52.16959 | 20.97195 | 340 ft | 0 kts | 76° |